sensor_id;sensor_type;location;lat;lon;timestamp;P1;durP1;ratioP1;P2;durP2;ratioP2
45476;SDS011;31958;51.756;-2.556;2023-03-13T00:01:15;11.80;;;2.17;;
45476;SDS011;31958;51.756;-2.556;2023-03-13T00:04:07;8.57;;;2.03;;
45476;SDS011;31958;51.756;-2.556;2023-03-13T00:06:33;10.07;;;1.88;;
45476;SDS011;31958;51.756;-2.556;2023-03-13T00:09:00;16.77;;;3.22;;
45476;SDS011;31958;51.756;-2.556;2023-03-13T00:11:28;11.57;;;3.30;;
45476;SDS011;31958;51.756;-2.556;2023-03-13T00:13:57;8.85;;;1.52;;
45476;SDS011;31958;51.756;-2.556;2023-03-13T00:16:24;9.75;;;1.73;;
45476;SDS011;31958;51.756;-2.556;2023-03-13T00:18:51;11.55;;;2.47;;
45476;SDS011;31958;51.756;-2.556;2023-03-13T00:21:17;7.32;;;1.67;;
45476;SDS011;31958;51.756;-2.556;2023-03-13T00:23:44;8.55;;;1.83;;
45476;SDS011;31958;51.756;-2.556;2023-03-13T00:26:12;10.18;;;1.80;;
45476;SDS011;31958;51.756;-2.556;2023-03-13T00:28:39;13.60;;;2.38;;
45476;SDS011;31958;51.756;-2.556;2023-03-13T00:31:06;6.00;;;1.23;;
45476;SDS011;31958;51.756;-2.556;2023-03-13T00:33:37;9.50;;;1.92;;
45476;SDS011;31958;51.756;-2.556;2023-03-13T00:36:05;14.95;;;2.13;;
45476;SDS011;31958;51.756;-2.556;2023-03-13T00:38:34;7.25;;;1.80;;
45476;SDS011;31958;51.756;-2.556;2023-03-13T00:43:49;9.48;;;1.58;;
45476;SDS011;31958;51.756;-2.556;2023-03-13T00:46:16;6.45;;;2.00;;
45476;SDS011;31958;51.756;-2.556;2023-03-13T00:48:42;13.30;;;1.92;;
45476;SDS011;31958;51.756;-2.556;2023-03-13T00:51:09;12.20;;;2.20;;
45476;SDS011;31958;51.756;-2.556;2023-03-13T00:53:34;11.50;;;2.33;;
45476;SDS011;31958;51.756;-2.556;2023-03-13T00:56:01;12.13;;;2.20;;
45476;SDS011;31958;51.756;-2.556;2023-03-13T00:58:32;6.63;;;1.70;;
45476;SDS011;31958;51.756;-2.556;2023-03-13T01:01:06;6.93;;;1.42;;
45476;SDS011;31958;51.756;-2.556;2023-03-13T01:03:36;10.98;;;1.80;;
45476;SDS011;31958;51.756;-2.556;2023-03-13T01:06:03;9.18;;;1.85;;
45476;SDS011;31958;51.756;-2.556;2023-03-13T01:08:29;11.48;;;2.15;;
45476;SDS011;31958;51.756;-2.556;2023-03-13T01:10:59;7.18;;;1.60;;
45476;SDS011;31958;51.756;-2.556;2023-03-13T01:13:35;9.55;;;1.80;;
45476;SDS011;31958;51.756;-2.556;2023-03-13T01:16:05;7.80;;;1.48;;
45476;SDS011;31958;51.756;-2.556;2023-03-13T01:18:33;7.32;;;1.98;;
45476;SDS011;31958;51.756;-2.556;2023-03-13T01:20:59;5.85;;;1.58;;
45476;SDS011;31958;51.756;-2.556;2023-03-13T01:23:25;9.90;;;1.80;;
45476;SDS011;31958;51.756;-2.556;2023-03-13T01:25:50;4.90;;;1.38;;
45476;SDS011;31958;51.756;-2.556;2023-03-13T01:28:16;12.35;;;1.88;;
45476;SDS011;31958;51.756;-2.556;2023-03-13T01:30:41;3.83;;;1.48;;
45476;SDS011;31958;51.756;-2.556;2023-03-13T01:33:07;10.23;;;1.45;;
45476;SDS011;31958;51.756;-2.556;2023-03-13T01:35:32;5.32;;;1.70;;
45476;SDS011;31958;51.756;-2.556;2023-03-13T01:37:57;6.25;;;1.67;;
45476;SDS011;31958;51.756;-2.556;2023-03-13T01:40:23;8.70;;;1.83;;
45476;SDS011;31958;51.756;-2.556;2023-03-13T01:42:53;3.67;;;1.17;;
45476;SDS011;31958;51.756;-2.556;2023-03-13T01:54:04;6.97;;;1.33;;
45476;SDS011;31958;51.756;-2.556;2023-03-13T01:56:56;5.85;;;1.40;;
45476;SDS011;31958;51.756;-2.556;2023-03-13T01:59:31;4.63;;;1.08;;
45476;SDS011;31958;51.756;-2.556;2023-03-13T02:02:01;4.07;;;0.80;;
45476;SDS011;31958;51.756;-2.556;2023-03-13T02:04:29;2.05;;;0.95;;
45476;SDS011;31958;51.756;-2.556;2023-03-13T02:06:57;1.35;;;0.63;;
45476;SDS011;31958;51.756;-2.556;2023-03-13T02:09:25;6.85;;;0.82;;
45476;SDS011;31958;51.756;-2.556;2023-03-13T02:11:57;4.35;;;0.90;;
45476;SDS011;31958;51.756;-2.556;2023-03-13T02:14:27;3.22;;;0.80;;
45476;SDS011;31958;51.756;-2.556;2023-03-13T02:16:53;2.78;;;0.70;;
45476;SDS011;31958;51.756;-2.556;2023-03-13T02:20:04;2.38;;;0.63;;
45476;SDS011;31958;51.756;-2.556;2023-03-13T02:27:42;1.15;;;0.38;;
45476;SDS011;31958;51.756;-2.556;2023-03-13T02:30:08;1.08;;;0.40;;
45476;SDS011;31958;51.756;-2.556;2023-03-13T02:32:35;2.45;;;0.65;;
45476;SDS011;31958;51.756;-2.556;2023-03-13T02:35:02;1.35;;;0.52;;
45476;SDS011;31958;51.756;-2.556;2023-03-13T02:37:30;2.05;;;0.52;;
45476;SDS011;31958;51.756;-2.556;2023-03-13T02:39:57;7.80;;;0.70;;
45476;SDS011;31958;51.756;-2.556;2023-03-13T02:42:25;2.03;;;0.63;;
45476;SDS011;31958;51.756;-2.556;2023-03-13T02:44:51;1.17;;;0.45;;
45476;SDS011;31958;51.756;-2.556;2023-03-13T02:47:18;2.80;;;0.43;;
45476;SDS011;31958;51.756;-2.556;2023-03-13T02:49:48;2.78;;;0.75;;
45476;SDS011;31958;51.756;-2.556;2023-03-13T02:52:25;1.55;;;0.57;;
45476;SDS011;31958;51.756;-2.556;2023-03-13T02:54:59;2.00;;;0.77;;
45476;SDS011;31958;51.756;-2.556;2023-03-13T02:57:27;3.03;;;0.75;;
45476;SDS011;31958;51.756;-2.556;2023-03-13T02:59:53;2.28;;;0.68;;
45476;SDS011;31958;51.756;-2.556;2023-03-13T03:02:18;1.95;;;0.60;;
45476;SDS011;31958;51.756;-2.556;2023-03-13T03:04:44;1.75;;;0.47;;
45476;SDS011;31958;51.756;-2.556;2023-03-13T03:07:10;1.48;;;0.65;;
45476;SDS011;31958;51.756;-2.556;2023-03-13T03:09:35;2.15;;;0.77;;
45476;SDS011;31958;51.756;-2.556;2023-03-13T03:12:00;1.98;;;0.77;;
45476;SDS011;31958;51.756;-2.556;2023-03-13T03:14:26;2.67;;;0.68;;
45476;SDS011;31958;51.756;-2.556;2023-03-13T03:16:51;9.05;;;1.35;;
45476;SDS011;31958;51.756;-2.556;2023-03-13T03:19:17;1.70;;;0.55;;
45476;SDS011;31958;51.756;-2.556;2023-03-13T03:21:42;2.35;;;0.80;;
45476;SDS011;31958;51.756;-2.556;2023-03-13T03:24:08;4.05;;;0.88;;
45476;SDS011;31958;51.756;-2.556;2023-03-13T03:26:33;4.25;;;0.98;;
45476;SDS011;31958;51.756;-2.556;2023-03-13T03:28:59;5.63;;;0.90;;
45476;SDS011;31958;51.756;-2.556;2023-03-13T03:31:24;3.63;;;0.80;;
45476;SDS011;31958;51.756;-2.556;2023-03-13T03:33:50;9.18;;;1.10;;
45476;SDS011;31958;51.756;-2.556;2023-03-13T03:36:19;6.80;;;0.90;;
45476;SDS011;31958;51.756;-2.556;2023-03-13T03:38:46;5.72;;;0.98;;
45476;SDS011;31958;51.756;-2.556;2023-03-13T03:41:12;5.82;;;1.00;;
45476;SDS011;31958;51.756;-2.556;2023-03-13T03:43:38;2.67;;;0.70;;
45476;SDS011;31958;51.756;-2.556;2023-03-13T03:46:04;3.28;;;0.65;;
45476;SDS011;31958;51.756;-2.556;2023-03-13T03:48:30;3.78;;;1.17;;
45476;SDS011;31958;51.756;-2.556;2023-03-13T03:50:55;9.00;;;1.05;;
45476;SDS011;31958;51.756;-2.556;2023-03-13T03:53:21;3.58;;;0.93;;
45476;SDS011;31958;51.756;-2.556;2023-03-13T03:55:46;5.70;;;1.10;;
45476;SDS011;31958;51.756;-2.556;2023-03-13T03:58:12;9.57;;;1.15;;
45476;SDS011;31958;51.756;-2.556;2023-03-13T04:00:37;9.27;;;1.08;;
45476;SDS011;31958;51.756;-2.556;2023-03-13T04:03:03;6.35;;;1.40;;
45476;SDS011;31958;51.756;-2.556;2023-03-13T04:05:28;10.02;;;1.13;;
45476;SDS011;31958;51.756;-2.556;2023-03-13T04:07:54;7.28;;;1.48;;
45476;SDS011;31958;51.756;-2.556;2023-03-13T04:10:19;8.32;;;1.77;;
45476;SDS011;31958;51.756;-2.556;2023-03-13T04:12:45;8.45;;;1.30;;
45476;SDS011;31958;51.756;-2.556;2023-03-13T04:15:10;8.00;;;1.35;;
45476;SDS011;31958;51.756;-2.556;2023-03-13T04:17:36;11.60;;;2.25;;
45476;SDS011;31958;51.756;-2.556;2023-03-13T04:20:02;9.85;;;1.85;;
45476;SDS011;31958;51.756;-2.556;2023-03-13T04:22:28;7.50;;;1.70;;
45476;SDS011;31958;51.756;-2.556;2023-03-13T04:24:54;18.20;;;2.20;;
45476;SDS011;31958;51.756;-2.556;2023-03-13T04:27:19;6.63;;;1.40;;
45476;SDS011;31958;51.756;-2.556;2023-03-13T04:29:45;8.60;;;1.25;;
45476;SDS011;31958;51.756;-2.556;2023-03-13T04:32:10;13.95;;;1.42;;
45476;SDS011;31958;51.756;-2.556;2023-03-13T04:34:35;5.65;;;1.50;;
45476;SDS011;31958;51.756;-2.556;2023-03-13T04:37:01;6.88;;;1.70;;
45476;SDS011;31958;51.756;-2.556;2023-03-13T04:39:26;12.70;;;2.47;;
45476;SDS011;31958;51.756;-2.556;2023-03-13T04:41:52;8.93;;;1.88;;
45476;SDS011;31958;51.756;-2.556;2023-03-13T04:44:19;13.18;;;1.80;;
45476;SDS011;31958;51.756;-2.556;2023-03-13T04:46:45;9.80;;;1.40;;
45476;SDS011;31958;51.756;-2.556;2023-03-13T04:49:12;14.70;;;2.13;;
45476;SDS011;31958;51.756;-2.556;2023-03-13T04:51:38;10.52;;;1.65;;
45476;SDS011;31958;51.756;-2.556;2023-03-13T04:54:05;10.05;;;1.17;;
45476;SDS011;31958;51.756;-2.556;2023-03-13T04:56:30;10.15;;;1.38;;
45476;SDS011;31958;51.756;-2.556;2023-03-13T04:58:56;13.10;;;2.00;;
45476;SDS011;31958;51.756;-2.556;2023-03-13T05:01:21;11.80;;;1.73;;
45476;SDS011;31958;51.756;-2.556;2023-03-13T05:03:46;13.70;;;2.30;;
45476;SDS011;31958;51.756;-2.556;2023-03-13T05:06:12;9.93;;;2.05;;
45476;SDS011;31958;51.756;-2.556;2023-03-13T05:08:37;12.02;;;1.85;;
45476;SDS011;31958;51.756;-2.556;2023-03-13T05:11:03;12.60;;;2.08;;
45476;SDS011;31958;51.756;-2.556;2023-03-13T05:13:28;15.40;;;2.90;;
45476;SDS011;31958;51.756;-2.556;2023-03-13T05:15:54;14.02;;;2.70;;
45476;SDS011;31958;51.756;-2.556;2023-03-13T05:18:20;14.75;;;3.17;;
45476;SDS011;31958;51.756;-2.556;2023-03-13T05:20:45;16.63;;;2.45;;
45476;SDS011;31958;51.756;-2.556;2023-03-13T05:23:10;14.13;;;2.00;;
45476;SDS011;31958;51.756;-2.556;2023-03-13T05:25:36;20.13;;;2.78;;
45476;SDS011;31958;51.756;-2.556;2023-03-13T05:28:02;15.55;;;2.53;;
45476;SDS011;31958;51.756;-2.556;2023-03-13T05:30:27;14.02;;;3.20;;
45476;SDS011;31958;51.756;-2.556;2023-03-13T05:32:53;21.23;;;3.00;;
45476;SDS011;31958;51.756;-2.556;2023-03-13T05:35:18;19.73;;;3.97;;
45476;SDS011;31958;51.756;-2.556;2023-03-13T05:37:44;23.15;;;2.58;;
45476;SDS011;31958;51.756;-2.556;2023-03-13T05:40:12;24.30;;;3.83;;
45476;SDS011;31958;51.756;-2.556;2023-03-13T05:42:38;16.33;;;2.80;;
45476;SDS011;31958;51.756;-2.556;2023-03-13T05:45:04;12.93;;;2.33;;
45476;SDS011;31958;51.756;-2.556;2023-03-13T05:47:29;20.00;;;2.97;;
45476;SDS011;31958;51.756;-2.556;2023-03-13T05:49:55;18.90;;;2.72;;
45476;SDS011;31958;51.756;-2.556;2023-03-13T05:52:20;20.88;;;3.13;;
45476;SDS011;31958;51.756;-2.556;2023-03-13T05:54:46;20.95;;;3.10;;
45476;SDS011;31958;51.756;-2.556;2023-03-13T05:57:11;19.20;;;3.67;;
45476;SDS011;31958;51.756;-2.556;2023-03-13T05:59:37;29.15;;;4.45;;
45476;SDS011;31958;51.756;-2.556;2023-03-13T06:02:02;12.88;;;2.40;;
45476;SDS011;31958;51.756;-2.556;2023-03-13T06:04:28;20.15;;;3.00;;
45476;SDS011;31958;51.756;-2.556;2023-03-13T06:06:53;14.52;;;3.03;;
45476;SDS011;31958;51.756;-2.556;2023-03-13T06:09:19;17.30;;;3.15;;
45476;SDS011;31958;51.756;-2.556;2023-03-13T06:11:44;24.27;;;2.55;;
45476;SDS011;31958;51.756;-2.556;2023-03-13T06:14:10;19.05;;;3.08;;
45476;SDS011;31958;51.756;-2.556;2023-03-13T06:16:35;17.95;;;3.67;;
45476;SDS011;31958;51.756;-2.556;2023-03-13T06:19:00;31.90;;;3.45;;
45476;SDS011;31958;51.756;-2.556;2023-03-13T06:21:26;19.92;;;3.25;;
45476;SDS011;31958;51.756;-2.556;2023-03-13T06:23:53;17.60;;;3.15;;
45476;SDS011;31958;51.756;-2.556;2023-03-13T06:26:18;19.95;;;3.30;;
45476;SDS011;31958;51.756;-2.556;2023-03-13T06:28:44;24.58;;;3.55;;
45476;SDS011;31958;51.756;-2.556;2023-03-13T06:31:09;22.77;;;2.95;;
45476;SDS011;31958;51.756;-2.556;2023-03-13T06:33:35;29.75;;;4.15;;
45476;SDS011;31958;51.756;-2.556;2023-03-13T06:36:01;21.48;;;3.30;;
45476;SDS011;31958;51.756;-2.556;2023-03-13T06:38:28;13.77;;;2.50;;
45476;SDS011;31958;51.756;-2.556;2023-03-13T06:40:54;15.13;;;2.20;;
45476;SDS011;31958;51.756;-2.556;2023-03-13T06:43:19;24.45;;;3.30;;
45476;SDS011;31958;51.756;-2.556;2023-03-13T06:45:45;17.65;;;2.58;;
45476;SDS011;31958;51.756;-2.556;2023-03-13T06:48:11;17.92;;;2.92;;
45476;SDS011;31958;51.756;-2.556;2023-03-13T06:50:37;24.25;;;3.53;;
45476;SDS011;31958;51.756;-2.556;2023-03-13T06:53:03;25.92;;;3.78;;
45476;SDS011;31958;51.756;-2.556;2023-03-13T06:55:28;19.40;;;3.10;;
45476;SDS011;31958;51.756;-2.556;2023-03-13T06:57:54;22.83;;;3.63;;
45476;SDS011;31958;51.756;-2.556;2023-03-13T07:00:19;16.98;;;3.42;;
45476;SDS011;31958;51.756;-2.556;2023-03-13T07:02:45;29.77;;;3.83;;
45476;SDS011;31958;51.756;-2.556;2023-03-13T07:05:11;17.45;;;2.95;;
45476;SDS011;31958;51.756;-2.556;2023-03-13T07:07:38;22.90;;;3.05;;
45476;SDS011;31958;51.756;-2.556;2023-03-13T07:10:05;18.15;;;3.92;;
45476;SDS011;31958;51.756;-2.556;2023-03-13T07:12:31;29.17;;;3.42;;
45476;SDS011;31958;51.756;-2.556;2023-03-13T07:14:56;26.95;;;3.53;;
45476;SDS011;31958;51.756;-2.556;2023-03-13T07:17:21;38.85;;;4.75;;
45476;SDS011;31958;51.756;-2.556;2023-03-13T07:19:47;23.95;;;2.90;;
45476;SDS011;31958;51.756;-2.556;2023-03-13T07:22:12;21.77;;;4.00;;
45476;SDS011;31958;51.756;-2.556;2023-03-13T07:24:38;30.77;;;3.72;;
45476;SDS011;31958;51.756;-2.556;2023-03-13T07:27:03;24.00;;;3.78;;
45476;SDS011;31958;51.756;-2.556;2023-03-13T07:29:29;18.77;;;2.72;;
45476;SDS011;31958;51.756;-2.556;2023-03-13T07:31:54;19.67;;;2.58;;
45476;SDS011;31958;51.756;-2.556;2023-03-13T07:34:19;32.58;;;3.35;;
45476;SDS011;31958;51.756;-2.556;2023-03-13T07:36:45;17.30;;;3.58;;
45476;SDS011;31958;51.756;-2.556;2023-03-13T07:39:10;24.33;;;4.07;;
45476;SDS011;31958;51.756;-2.556;2023-03-13T07:41:36;24.55;;;3.95;;
45476;SDS011;31958;51.756;-2.556;2023-03-13T07:44:01;24.98;;;4.30;;
45476;SDS011;31958;51.756;-2.556;2023-03-13T07:46:26;26.10;;;4.55;;
45476;SDS011;31958;51.756;-2.556;2023-03-13T07:48:52;35.67;;;5.05;;
45476;SDS011;31958;51.756;-2.556;2023-03-13T07:51:20;30.65;;;3.63;;
45476;SDS011;31958;51.756;-2.556;2023-03-13T07:53:47;29.88;;;3.75;;
45476;SDS011;31958;51.756;-2.556;2023-03-13T07:56:16;27.20;;;4.18;;
45476;SDS011;31958;51.756;-2.556;2023-03-13T07:58:43;25.85;;;3.42;;
45476;SDS011;31958;51.756;-2.556;2023-03-13T08:03:39;24.00;;;4.60;;
45476;SDS011;31958;51.756;-2.556;2023-03-13T08:06:06;27.00;;;4.85;;
45476;SDS011;31958;51.756;-2.556;2023-03-13T08:08:33;29.48;;;5.28;;
45476;SDS011;31958;51.756;-2.556;2023-03-13T08:11:02;24.10;;;3.05;;
45476;SDS011;31958;51.756;-2.556;2023-03-13T08:13:29;37.40;;;4.50;;
45476;SDS011;31958;51.756;-2.556;2023-03-13T08:16:05;28.08;;;4.40;;
45476;SDS011;31958;51.756;-2.556;2023-03-13T08:18:34;25.05;;;4.03;;
45476;SDS011;31958;51.756;-2.556;2023-03-13T08:21:01;34.45;;;4.60;;
45476;SDS011;31958;51.756;-2.556;2023-03-13T08:23:31;30.88;;;4.57;;
45476;SDS011;31958;51.756;-2.556;2023-03-13T08:26:00;36.63;;;4.93;;
45476;SDS011;31958;51.756;-2.556;2023-03-13T08:28:27;26.40;;;3.60;;
45476;SDS011;31958;51.756;-2.556;2023-03-13T08:30:52;34.30;;;4.20;;
45476;SDS011;31958;51.756;-2.556;2023-03-13T08:33:18;32.88;;;4.00;;
45476;SDS011;31958;51.756;-2.556;2023-03-13T08:35:43;29.58;;;3.65;;
45476;SDS011;31958;51.756;-2.556;2023-03-13T08:38:08;17.92;;;3.60;;
45476;SDS011;31958;51.756;-2.556;2023-03-13T08:40:34;32.28;;;4.68;;
45476;SDS011;31958;51.756;-2.556;2023-03-13T08:42:59;30.50;;;5.40;;
45476;SDS011;31958;51.756;-2.556;2023-03-13T08:45:25;33.58;;;4.95;;
45476;SDS011;31958;51.756;-2.556;2023-03-13T08:47:53;28.17;;;4.28;;
45476;SDS011;31958;51.756;-2.556;2023-03-13T08:50:19;32.42;;;4.05;;
45476;SDS011;31958;51.756;-2.556;2023-03-13T08:52:44;32.50;;;4.45;;
45476;SDS011;31958;51.756;-2.556;2023-03-13T08:55:10;29.35;;;4.85;;
45476;SDS011;31958;51.756;-2.556;2023-03-13T08:57:35;18.50;;;3.30;;
45476;SDS011;31958;51.756;-2.556;2023-03-13T09:00:01;34.25;;;5.30;;
45476;SDS011;31958;51.756;-2.556;2023-03-13T09:02:26;36.03;;;5.13;;
45476;SDS011;31958;51.756;-2.556;2023-03-13T09:04:52;42.25;;;4.50;;
45476;SDS011;31958;51.756;-2.556;2023-03-13T09:07:17;18.70;;;4.07;;
45476;SDS011;31958;51.756;-2.556;2023-03-13T09:09:42;33.50;;;4.53;;
45476;SDS011;31958;51.756;-2.556;2023-03-13T09:12:08;30.23;;;5.03;;
45476;SDS011;31958;51.756;-2.556;2023-03-13T09:14:34;26.23;;;3.83;;
45476;SDS011;31958;51.756;-2.556;2023-03-13T09:17:00;30.38;;;4.53;;
45476;SDS011;31958;51.756;-2.556;2023-03-13T09:19:25;30.17;;;5.28;;
45476;SDS011;31958;51.756;-2.556;2023-03-13T09:21:50;48.67;;;6.20;;
45476;SDS011;31958;51.756;-2.556;2023-03-13T09:24:16;33.85;;;5.32;;
45476;SDS011;31958;51.756;-2.556;2023-03-13T09:26:41;26.42;;;4.00;;
45476;SDS011;31958;51.756;-2.556;2023-03-13T09:29:08;29.48;;;3.97;;
45476;SDS011;31958;51.756;-2.556;2023-03-13T09:31:34;17.75;;;4.30;;
45476;SDS011;31958;51.756;-2.556;2023-03-13T09:33:59;32.63;;;4.47;;
45476;SDS011;31958;51.756;-2.556;2023-03-13T09:36:25;19.48;;;4.07;;
45476;SDS011;31958;51.756;-2.556;2023-03-13T09:38:52;29.77;;;4.75;;
45476;SDS011;31958;51.756;-2.556;2023-03-13T09:43:46;30.30;;;3.90;;
45476;SDS011;31958;51.756;-2.556;2023-03-13T09:46:17;48.42;;;6.90;;
45476;SDS011;31958;51.756;-2.556;2023-03-13T09:48:49;22.02;;;3.60;;
45476;SDS011;31958;51.756;-2.556;2023-03-13T09:51:23;31.42;;;4.38;;
45476;SDS011;31958;51.756;-2.556;2023-03-13T09:54:00;24.10;;;4.70;;
45476;SDS011;31958;51.756;-2.556;2023-03-13T09:56:49;29.70;;;4.00;;
45476;SDS011;31958;51.756;-2.556;2023-03-13T10:01:46;32.97;;;5.55;;
45476;SDS011;31958;51.756;-2.556;2023-03-13T10:06:43;16.77;;;3.45;;
45476;SDS011;31958;51.756;-2.556;2023-03-13T10:09:16;23.10;;;4.65;;
45476;SDS011;31958;51.756;-2.556;2023-03-13T10:11:54;22.58;;;4.45;;
45476;SDS011;31958;51.756;-2.556;2023-03-13T10:14:28;23.00;;;3.38;;
45476;SDS011;31958;51.756;-2.556;2023-03-13T10:17:19;27.75;;;4.07;;
45476;SDS011;31958;51.756;-2.556;2023-03-13T10:19:55;37.15;;;5.57;;
45476;SDS011;31958;51.756;-2.556;2023-03-13T10:22:24;26.35;;;4.53;;
45476;SDS011;31958;51.756;-2.556;2023-03-13T10:27:19;25.63;;;5.28;;
45476;SDS011;31958;51.756;-2.556;2023-03-13T10:29:45;28.85;;;5.53;;
45476;SDS011;31958;51.756;-2.556;2023-03-13T10:32:12;33.97;;;5.95;;
45476;SDS011;31958;51.756;-2.556;2023-03-13T10:34:52;30.05;;;4.72;;
45476;SDS011;31958;51.756;-2.556;2023-03-13T10:37:31;34.90;;;5.43;;
45476;SDS011;31958;51.756;-2.556;2023-03-13T10:40:18;30.88;;;5.15;;
45476;SDS011;31958;51.756;-2.556;2023-03-13T10:42:50;35.38;;;6.68;;
45476;SDS011;31958;51.756;-2.556;2023-03-13T10:45:17;35.45;;;5.22;;
45476;SDS011;31958;51.756;-2.556;2023-03-13T10:47:53;25.42;;;4.72;;
45476;SDS011;31958;51.756;-2.556;2023-03-13T10:50:21;23.88;;;4.60;;
45476;SDS011;31958;51.756;-2.556;2023-03-13T10:52:48;27.08;;;5.38;;
45476;SDS011;31958;51.756;-2.556;2023-03-13T10:55:18;31.20;;;5.13;;
45476;SDS011;31958;51.756;-2.556;2023-03-13T11:00:27;26.45;;;3.92;;
45476;SDS011;31958;51.756;-2.556;2023-03-13T11:02:53;24.75;;;5.05;;
45476;SDS011;31958;51.756;-2.556;2023-03-13T11:07:47;26.95;;;4.43;;
45476;SDS011;31958;51.756;-2.556;2023-03-13T11:10:20;24.05;;;3.95;;
45476;SDS011;31958;51.756;-2.556;2023-03-13T11:12:56;21.55;;;4.05;;
45476;SDS011;31958;51.756;-2.556;2023-03-13T11:15:24;20.02;;;3.78;;
45476;SDS011;31958;51.756;-2.556;2023-03-13T11:20:40;19.48;;;3.83;;
45476;SDS011;31958;51.756;-2.556;2023-03-13T11:25:49;29.90;;;6.45;;
45476;SDS011;31958;51.756;-2.556;2023-03-13T11:31:23;25.23;;;4.68;;
45476;SDS011;31958;51.756;-2.556;2023-03-13T11:34:56;30.10;;;4.88;;
45476;SDS011;31958;51.756;-2.556;2023-03-13T11:36:58;33.17;;;5.07;;
45476;SDS011;31958;51.756;-2.556;2023-03-13T11:48:08;21.70;;;5.60;;
45476;SDS011;31958;51.756;-2.556;2023-03-13T11:50:56;29.83;;;4.30;;
45476;SDS011;31958;51.756;-2.556;2023-03-13T11:53:30;23.00;;;3.85;;
45476;SDS011;31958;51.756;-2.556;2023-03-13T11:56:03;24.98;;;4.43;;
45476;SDS011;31958;51.756;-2.556;2023-03-13T12:01:22;26.05;;;4.50;;
45476;SDS011;31958;51.756;-2.556;2023-03-13T12:09:33;14.70;;;3.50;;
45476;SDS011;31958;51.756;-2.556;2023-03-13T12:11:59;12.80;;;3.45;;
45476;SDS011;31958;51.756;-2.556;2023-03-13T12:17:02;24.30;;;3.88;;
45476;SDS011;31958;51.756;-2.556;2023-03-13T12:19:50;15.57;;;2.90;;
45476;SDS011;31958;51.756;-2.556;2023-03-13T12:22:19;19.95;;;3.25;;
45476;SDS011;31958;51.756;-2.556;2023-03-13T12:24:50;19.38;;;3.53;;
45476;SDS011;31958;51.756;-2.556;2023-03-13T12:27:26;25.95;;;4.22;;
45476;SDS011;31958;51.756;-2.556;2023-03-13T12:35:34;26.02;;;3.88;;
45476;SDS011;31958;51.756;-2.556;2023-03-13T12:38:05;19.02;;;3.13;;
45476;SDS011;31958;51.756;-2.556;2023-03-13T12:41:10;19.90;;;4.63;;
45476;SDS011;31958;51.756;-2.556;2023-03-13T12:43:41;21.45;;;3.70;;
45476;SDS011;31958;51.756;-2.556;2023-03-13T12:46:20;19.95;;;3.58;;
45476;SDS011;31958;51.756;-2.556;2023-03-13T12:49:08;17.15;;;3.90;;
45476;SDS011;31958;51.756;-2.556;2023-03-13T13:00:27;17.83;;;3.92;;
45476;SDS011;31958;51.756;-2.556;2023-03-13T13:08:46;21.75;;;3.47;;
45476;SDS011;31958;51.756;-2.556;2023-03-13T13:14:00;17.98;;;4.05;;
45476;SDS011;31958;51.756;-2.556;2023-03-13T13:16:45;20.20;;;3.78;;
45476;SDS011;31958;51.756;-2.556;2023-03-13T13:24:53;15.32;;;2.67;;
45476;SDS011;31958;51.756;-2.556;2023-03-13T13:30:15;21.10;;;3.40;;
45476;SDS011;31958;51.756;-2.556;2023-03-13T13:35:19;10.32;;;2.67;;
45476;SDS011;31958;51.756;-2.556;2023-03-13T13:38:40;15.40;;;2.58;;
45476;SDS011;31958;51.756;-2.556;2023-03-13T13:41:02;18.70;;;2.47;;
45476;SDS011;31958;51.756;-2.556;2023-03-13T13:51:30;14.27;;;2.55;;
45476;SDS011;31958;51.756;-2.556;2023-03-13T14:07:02;19.77;;;2.78;;
45476;SDS011;31958;51.756;-2.556;2023-03-13T14:09:39;17.80;;;3.28;;
45476;SDS011;31958;51.756;-2.556;2023-03-13T14:20:38;17.73;;;2.70;;
45476;SDS011;31958;51.756;-2.556;2023-03-13T14:23:34;14.45;;;2.53;;
45476;SDS011;31958;51.756;-2.556;2023-03-13T14:26:17;16.65;;;2.80;;
45476;SDS011;31958;51.756;-2.556;2023-03-13T14:28:44;15.32;;;3.00;;
45476;SDS011;31958;51.756;-2.556;2023-03-13T14:31:20;19.77;;;2.70;;
45476;SDS011;31958;51.756;-2.556;2023-03-13T14:33:49;19.55;;;4.20;;
45476;SDS011;31958;51.756;-2.556;2023-03-13T14:36:15;22.67;;;4.38;;
45476;SDS011;31958;51.756;-2.556;2023-03-13T14:38:49;15.98;;;3.03;;
45476;SDS011;31958;51.756;-2.556;2023-03-13T14:41:32;25.38;;;3.30;;
45476;SDS011;31958;51.756;-2.556;2023-03-13T14:44:05;24.20;;;3.55;;
45476;SDS011;31958;51.756;-2.556;2023-03-13T14:46:38;16.88;;;3.05;;
45476;SDS011;31958;51.756;-2.556;2023-03-13T14:49:13;19.63;;;3.20;;
45476;SDS011;31958;51.756;-2.556;2023-03-13T14:51:40;17.48;;;3.63;;
45476;SDS011;31958;51.756;-2.556;2023-03-13T14:54:20;19.88;;;3.50;;
45476;SDS011;31958;51.756;-2.556;2023-03-13T14:56:50;28.23;;;3.83;;
45476;SDS011;31958;51.756;-2.556;2023-03-13T14:59:26;22.38;;;2.80;;
45476;SDS011;31958;51.756;-2.556;2023-03-13T15:01:59;19.85;;;3.47;;
45476;SDS011;31958;51.756;-2.556;2023-03-13T15:07:14;22.52;;;4.32;;
45476;SDS011;31958;51.756;-2.556;2023-03-13T15:09:42;27.75;;;4.82;;
45476;SDS011;31958;51.756;-2.556;2023-03-13T15:12:12;17.08;;;3.20;;
45476;SDS011;31958;51.756;-2.556;2023-03-13T15:14:39;24.35;;;2.80;;
45476;SDS011;31958;51.756;-2.556;2023-03-13T15:17:10;18.85;;;3.20;;
45476;SDS011;31958;51.756;-2.556;2023-03-13T15:19:39;23.65;;;3.22;;
45476;SDS011;31958;51.756;-2.556;2023-03-13T15:22:04;20.05;;;4.07;;
45476;SDS011;31958;51.756;-2.556;2023-03-13T15:24:29;20.48;;;3.20;;
45476;SDS011;31958;51.756;-2.556;2023-03-13T15:26:55;23.95;;;3.53;;
45476;SDS011;31958;51.756;-2.556;2023-03-13T15:29:21;27.83;;;3.78;;
45476;SDS011;31958;51.756;-2.556;2023-03-13T15:31:46;25.65;;;4.00;;
45476;SDS011;31958;51.756;-2.556;2023-03-13T15:34:12;29.80;;;4.40;;
45476;SDS011;31958;51.756;-2.556;2023-03-13T15:36:38;27.77;;;3.20;;
45476;SDS011;31958;51.756;-2.556;2023-03-13T15:39:09;20.85;;;3.65;;
45476;SDS011;31958;51.756;-2.556;2023-03-13T15:41:38;23.65;;;3.55;;
45476;SDS011;31958;51.756;-2.556;2023-03-13T15:44:03;27.50;;;4.43;;
45476;SDS011;31958;51.756;-2.556;2023-03-13T15:46:29;22.88;;;3.35;;
45476;SDS011;31958;51.756;-2.556;2023-03-13T15:48:54;24.85;;;3.17;;
45476;SDS011;31958;51.756;-2.556;2023-03-13T15:51:20;19.60;;;3.30;;
45476;SDS011;31958;51.756;-2.556;2023-03-13T15:53:45;17.55;;;2.58;;
45476;SDS011;31958;51.756;-2.556;2023-03-13T15:56:15;9.93;;;2.05;;
45476;SDS011;31958;51.756;-2.556;2023-03-13T15:58:43;15.80;;;3.03;;
45476;SDS011;31958;51.756;-2.556;2023-03-13T16:01:09;14.10;;;1.90;;
45476;SDS011;31958;51.756;-2.556;2023-03-13T16:03:36;21.45;;;2.47;;
45476;SDS011;31958;51.756;-2.556;2023-03-13T16:06:04;14.65;;;2.28;;
45476;SDS011;31958;51.756;-2.556;2023-03-13T16:08:37;8.55;;;2.47;;
45476;SDS011;31958;51.756;-2.556;2023-03-13T16:11:03;5.72;;;1.55;;
45476;SDS011;31958;51.756;-2.556;2023-03-13T16:13:29;10.43;;;1.52;;
45476;SDS011;31958;51.756;-2.556;2023-03-13T16:15:54;7.88;;;1.35;;
45476;SDS011;31958;51.756;-2.556;2023-03-13T16:18:21;11.40;;;1.92;;
45476;SDS011;31958;51.756;-2.556;2023-03-13T16:20:48;10.18;;;3.47;;
45476;SDS011;31958;51.756;-2.556;2023-03-13T16:23:14;6.03;;;1.30;;
45476;SDS011;31958;51.756;-2.556;2023-03-13T16:25:40;7.75;;;1.60;;
45476;SDS011;31958;51.756;-2.556;2023-03-13T16:28:09;12.55;;;2.45;;
45476;SDS011;31958;51.756;-2.556;2023-03-13T16:30:39;13.20;;;1.60;;
45476;SDS011;31958;51.756;-2.556;2023-03-13T16:33:07;7.93;;;2.33;;
45476;SDS011;31958;51.756;-2.556;2023-03-13T16:35:33;8.20;;;1.92;;
45476;SDS011;31958;51.756;-2.556;2023-03-13T16:37:59;12.25;;;1.65;;
45476;SDS011;31958;51.756;-2.556;2023-03-13T16:40:26;10.60;;;1.55;;
45476;SDS011;31958;51.756;-2.556;2023-03-13T16:42:57;12.75;;;2.08;;